KCLK/CLK METAR and TAF weather

Enter ICAO airport designator
Station Type Date Time Source
KCLK METAR 2019/10/23 12:35 UTC NOAA

KCLK 231235Z AUTO 16008KT 10SM CLR 09/00 A2993 RMK AO2


Station Type Date Time Source
KCLK Decoded METAR 2019/10/23 12:35 UTC NOAA

Clinton, Clinton Regional Airport, OK, United States (KCLK) 35-32-17N 098-55-17W
Oct 23, 2019 - 08:35 AM EDT / 2019.10.23 1235 UTC
Wind: from the SSE (160 degrees) at 9 MPH (8 KT):0
Visibility: 10 mile(s):0
Sky conditions: clear
Temperature: 48 F (9 C)
Dew Point: 32 F (0 C)
Relative Humidity: 53%
Pressure (altimeter): 29.93 in. Hg (1013 hPa)
ob: KCLK 231235Z AUTO 16008KT 10SM CLR 09/00 A2993 RMK AO2
cycle: 12

Station Type Date Time Source
KCLK TAF UTC NOAA

Error!

Example: see airport list